createdAt,value
2022-08-23T00:02:51.805Z,4.00
2022-08-23T00:07:57.392Z,3.90
2022-08-23T00:13:00.534Z,4.20
2022-08-23T00:18:03.768Z,3.75
2022-08-23T00:23:08.768Z,3.53
2022-08-23T00:28:12.563Z,3.60
2022-08-23T00:33:18.057Z,3.65
2022-08-23T00:38:32.419Z,3.90
2022-08-23T00:44:00.532Z,3.95
2022-08-23T00:49:09.125Z,4.28
2022-08-23T00:54:16.649Z,4.30
2022-08-23T00:59:20.973Z,4.00
2022-08-23T01:04:27.083Z,4.20
2022-08-23T01:09:32.008Z,4.30
2022-08-23T01:14:39.545Z,4.45
2022-08-23T01:19:48.620Z,4.68
2022-08-23T01:25:08.260Z,4.25
2022-08-23T01:30:19.550Z,4.05
2022-08-23T01:35:31.083Z,4.80
2022-08-23T01:40:36.529Z,3.53
2022-08-23T01:45:40.415Z,3.22
2022-08-23T01:50:46.354Z,3.42
2022-08-23T01:55:51.441Z,3.70
2022-08-23T02:00:56.418Z,3.88
2022-08-23T02:06:00.273Z,3.83
2022-08-23T02:11:10.198Z,3.30
2022-08-23T02:16:22.411Z,3.95
2022-08-23T02:21:26.473Z,3.50
2022-08-23T02:26:31.485Z,3.50
2022-08-23T02:31:35.497Z,3.03
2022-08-23T02:36:40.259Z,3.25
2022-08-23T02:46:48.945Z,4.50
2022-08-23T02:51:52.263Z,3.80
2022-08-23T02:56:56.874Z,4.05
2022-08-23T03:02:00.134Z,4.60
2022-08-23T03:07:08.655Z,3.53
2022-08-23T03:12:13.867Z,3.83
2022-08-23T03:17:22.786Z,4.55
2022-08-23T03:22:26.653Z,4.25
2022-08-23T03:27:33.225Z,4.10
2022-08-23T03:32:42.364Z,4.00
2022-08-23T03:37:55.316Z,4.10
2022-08-23T03:43:01.364Z,4.15
2022-08-23T03:48:05.969Z,4.50
2022-08-23T03:53:12.195Z,4.05
2022-08-23T03:58:19.332Z,4.15
2022-08-23T04:08:34.448Z,4.97
2022-08-23T04:13:42.998Z,4.03
2022-08-23T04:18:48.454Z,5.15
2022-08-23T04:23:54.043Z,4.78
2022-08-23T04:28:58.542Z,4.88
2022-08-23T04:34:02.716Z,4.53
2022-08-23T04:39:07.664Z,4.20
2022-08-23T04:44:12.273Z,4.70
2022-08-23T04:49:16.441Z,4.47
2022-08-23T04:54:21.368Z,4.80
2022-08-23T04:59:44.086Z,4.03
2022-08-23T05:04:47.365Z,4.47
2022-08-23T05:09:50.856Z,4.88
2022-08-23T05:14:55.676Z,5.10
2022-08-23T05:19:59.273Z,4.65
2022-08-23T05:25:02.455Z,3.97
2022-08-23T05:30:08.484Z,3.92
2022-08-23T05:35:18.865Z,3.88
2022-08-23T05:40:23.304Z,3.72
2022-08-23T05:45:44.874Z,3.70
2022-08-23T05:50:48.445Z,4.13
2022-08-23T05:55:52.186Z,4.30
2022-08-23T06:00:58.390Z,4.85
2022-08-23T06:06:03.184Z,3.30
2022-08-23T06:11:14.035Z,3.05
2022-08-23T06:16:26.400Z,3.17
2022-08-23T06:21:30.925Z,3.08
2022-08-23T06:26:38.283Z,3.15
2022-08-23T06:31:48.672Z,3.00
2022-08-23T06:37:05.059Z,2.80
2022-08-23T06:42:38.430Z,2.90
2022-08-23T06:47:45.938Z,3.20
2022-08-23T06:58:00.815Z,4.45
2022-08-23T07:03:18.130Z,3.08
2022-08-23T07:08:40.292Z,2.40
2022-08-23T07:13:43.955Z,2.45
2022-08-23T07:18:49.915Z,2.88
2022-08-23T07:23:53.949Z,2.50
2022-08-23T07:28:57.999Z,2.90
2022-08-23T07:34:06.300Z,2.97
2022-08-23T07:39:12.696Z,2.40
2022-08-23T07:44:18.066Z,2.42
2022-08-23T07:49:29.450Z,3.15
2022-08-23T07:54:34.413Z,2.38
2022-08-23T07:59:43.592Z,2.35
2022-08-23T08:05:06.991Z,2.50
2022-08-23T08:10:11.711Z,2.33
2022-08-23T08:20:22.717Z,2.60
2022-08-23T08:25:41.352Z,1.90
2022-08-23T08:30:45.599Z,2.20
2022-08-23T08:35:57.780Z,2.20
2022-08-23T08:41:13.417Z,2.10
2022-08-23T08:46:23.231Z,2.58
2022-08-23T08:51:41.735Z,3.00
2022-08-23T08:56:49.600Z,2.00
2022-08-23T09:01:58.881Z,2.00
2022-08-23T09:07:21.505Z,1.90
2022-08-23T09:12:33.578Z,1.73
2022-08-23T09:17:44.182Z,1.83
2022-08-23T09:22:52.571Z,1.83
2022-08-23T09:28:02.896Z,2.17
2022-08-23T09:33:16.172Z,1.65
2022-08-23T09:38:21.578Z,2.33
2022-08-23T09:43:44.532Z,1.85
2022-08-23T09:48:48.232Z,2.03
2022-08-23T09:54:10.208Z,1.90
2022-08-23T09:59:26.952Z,1.92
2022-08-23T10:04:41.715Z,1.75
2022-08-23T10:09:46.518Z,2.00
2022-08-23T10:14:50.118Z,1.95
2022-08-23T10:20:00.915Z,1.60
2022-08-23T10:25:12.524Z,1.50
2022-08-23T10:30:19.254Z,1.73
2022-08-23T10:35:32.477Z,1.20
2022-08-23T10:40:45.782Z,1.60
2022-08-23T10:45:50.013Z,1.23
2022-08-23T10:51:09.331Z,1.35
2022-08-23T10:56:19.169Z,1.63
2022-08-23T11:01:35.260Z,1.60
2022-08-23T11:06:47.197Z,1.60
2022-08-23T11:12:23.450Z,1.33
2022-08-23T11:17:29.965Z,1.60
2022-08-23T11:22:54.989Z,1.67
2022-08-23T11:28:39.877Z,1.20
2022-08-23T11:33:47.844Z,1.23
2022-08-23T11:39:19.644Z,1.30
2022-08-23T11:44:39.360Z,1.58
2022-08-23T11:50:16.158Z,1.55
2022-08-23T11:55:42.946Z,1.40
2022-08-23T12:00:57.934Z,1.30
2022-08-23T12:06:08.943Z,1.20
2022-08-23T12:11:13.439Z,1.50
2022-08-23T12:16:34.518Z,1.65
2022-08-23T12:21:49.930Z,1.40
2022-08-23T12:27:07.558Z,1.40
2022-08-23T12:32:20.326Z,1.30
2022-08-23T12:37:34.494Z,1.40
2022-08-23T12:42:39.583Z,1.95
2022-08-23T12:47:57.028Z,1.48
2022-08-23T12:53:03.876Z,1.48
2022-08-23T12:58:08.504Z,1.30
2022-08-23T13:03:17.961Z,1.30
2022-08-23T13:08:34.141Z,1.00
2022-08-23T13:13:41.280Z,1.40
2022-08-23T13:18:46.505Z,1.10
2022-08-23T13:23:50.919Z,1.23
2022-08-23T13:29:07.097Z,1.40
2022-08-23T13:34:11.766Z,1.20
2022-08-23T13:39:15.158Z,1.25
2022-08-23T13:44:20.227Z,1.40
2022-08-23T13:49:28.670Z,1.75
2022-08-23T13:54:33.730Z,1.30
2022-08-23T13:59:39.257Z,1.65
2022-08-23T14:04:44.659Z,1.38
2022-08-23T14:09:50.990Z,1.60
2022-08-23T14:14:57.711Z,1.38
2022-08-23T14:25:28.098Z,1.40
2022-08-23T14:30:34.233Z,2.33
2022-08-23T14:35:38.720Z,1.48
2022-08-23T14:45:55.618Z,1.40
2022-08-23T14:51:00.227Z,1.52
2022-08-23T14:56:20.636Z,1.75
2022-08-23T15:01:25.040Z,1.42
2022-08-23T15:06:30.145Z,1.15
2022-08-23T15:16:56.760Z,1.10
2022-08-23T15:22:06.531Z,0.98
2022-08-23T15:27:24.089Z,1.30
2022-08-23T15:32:27.297Z,1.42
2022-08-23T15:37:34.399Z,1.25
2022-08-23T15:42:38.296Z,1.60
2022-08-23T15:47:47.445Z,1.70
2022-08-23T15:52:52.079Z,1.20
2022-08-23T15:57:58.170Z,1.48
2022-08-23T16:03:19.198Z,1.33
2022-08-23T16:08:28.068Z,1.30
2022-08-23T16:13:31.860Z,1.38
2022-08-23T16:18:35.080Z,1.48
2022-08-23T16:23:40.127Z,1.67
2022-08-23T16:28:44.501Z,1.48
2022-08-23T16:33:50.362Z,2.10
2022-08-23T16:38:56.057Z,1.33
2022-08-23T16:43:59.363Z,1.40
2022-08-23T16:49:02.893Z,1.30
2022-08-23T16:54:08.507Z,1.60
2022-08-23T16:59:13.831Z,1.63
2022-08-23T17:04:17.901Z,1.58
2022-08-23T17:09:24.880Z,1.85
2022-08-23T17:14:28.343Z,1.58
2022-08-23T17:19:31.542Z,1.40
2022-08-23T17:24:37.291Z,1.30
2022-08-23T17:29:41.242Z,1.70
2022-08-23T17:34:44.928Z,1.60
2022-08-23T17:39:50.651Z,1.70
2022-08-23T17:44:56.439Z,2.00
2022-08-23T17:50:00.483Z,2.40
2022-08-23T17:55:06.278Z,2.07
2022-08-23T18:00:12.642Z,2.00
2022-08-23T18:05:16.574Z,2.60
2022-08-23T18:10:21.552Z,2.80
2022-08-23T18:20:30.592Z,2.72
2022-08-23T18:25:35.480Z,2.78
2022-08-23T18:30:40.252Z,2.40
2022-08-23T18:40:49.182Z,2.75
2022-08-23T18:45:54.760Z,2.83
2022-08-23T18:50:58.215Z,2.72
2022-08-23T18:56:03.445Z,3.08
2022-08-23T19:01:23.967Z,2.95
2022-08-23T19:06:28.156Z,3.10
2022-08-23T19:11:33.777Z,3.47
2022-08-23T19:16:37.783Z,3.30
2022-08-23T19:21:41.108Z,3.35
2022-08-23T19:26:47.651Z,3.30
2022-08-23T19:31:51.098Z,3.58
2022-08-23T19:37:00.896Z,3.00
2022-08-23T19:42:11.441Z,3.72
2022-08-23T19:47:19.719Z,3.08
2022-08-23T19:52:24.935Z,2.88
2022-08-23T19:57:29.731Z,3.00
2022-08-23T20:02:33.273Z,2.85
2022-08-23T20:07:37.862Z,3.47
2022-08-23T20:12:43.341Z,3.75
2022-08-23T20:17:46.662Z,2.95
2022-08-23T20:23:08.823Z,3.33
2022-08-23T20:28:13.618Z,3.72
2022-08-23T20:33:16.724Z,3.45
2022-08-23T20:38:32.873Z,3.40
2022-08-23T20:43:39.296Z,3.50
2022-08-23T20:48:43.171Z,3.25
2022-08-23T20:53:47.931Z,3.65
2022-08-23T20:58:52.898Z,3.60
2022-08-23T21:09:01.296Z,3.88
2022-08-23T21:14:06.500Z,3.80
2022-08-23T21:19:10.879Z,4.18
2022-08-23T21:24:14.506Z,3.92
2022-08-23T21:29:19.673Z,3.97
2022-08-23T21:39:27.280Z,3.45
2022-08-23T21:44:32.354Z,4.13
2022-08-23T21:54:43.400Z,3.78
2022-08-23T21:59:49.270Z,5.00
2022-08-23T22:04:52.420Z,4.68
2022-08-23T22:09:55.577Z,4.38
2022-08-23T22:15:00.152Z,4.60
2022-08-23T22:20:05.580Z,4.77
2022-08-23T22:25:09.593Z,4.93
2022-08-23T22:30:15.059Z,4.07
2022-08-23T22:35:19.663Z,4.50
2022-08-23T22:40:23.180Z,4.75
2022-08-23T22:45:27.744Z,5.28
2022-08-23T22:50:31.957Z,4.57
2022-08-23T22:55:35.048Z,4.82
2022-08-23T23:00:43.303Z,5.20
2022-08-23T23:05:46.891Z,4.75
2022-08-23T23:10:50.166Z,4.60
2022-08-23T23:15:54.953Z,5.07
2022-08-23T23:21:00.252Z,5.55
2022-08-23T23:26:03.805Z,5.00
2022-08-23T23:31:08.410Z,4.32
2022-08-23T23:36:12.557Z,4.55
2022-08-23T23:41:21.008Z,4.97
2022-08-23T23:46:26.069Z,5.35
2022-08-23T23:51:30.826Z,4.20
2022-08-23T23:56:34.323Z,4.90
